Time;durP1;ratioP1;P1;durP2;ratioP2;P2;SDS_P1;SDS_P2;PMS_P1;PMS_P2;Temp;Humidity;BMP_temperature;BMP_pressure;BME280_temperature;BME280_humidity;BME280_pressure;Samples;Min_cycle;Max_cycle;Signal;HPM_P1;HPM_P2
2024/01/28 00:00:59;;;;;;;0.47;0.47;;;;;;;1.03;98.04;101646.22;4206252;28;20752;-75
2024/01/28 00:03:26;;;;;;;0.30;0.30;;;;;;;1.00;97.80;101638.38;4213804;28;20244;-73
2024/01/28 00:05:54;;;;;;;0.20;0.20;;;;;;;1.00;98.43;101643.69;4208724;28;21467;-74
2024/01/28 00:08:25;;;;;;;0.20;0.20;;;;;;;1.01;98.92;101648.13;4244974;28;20237;-73
2024/01/28 00:10:54;;;;;;;0.10;0.10;;;;;;;1.08;98.76;101649.63;4214945;28;20251;-77
2024/01/28 00:13:24;;;;;;;0.10;0.10;;;;;;;1.21;97.64;101642.03;4219247;28;20277;-74
2024/01/28 00:15:54;;;;;;;0.10;0.10;;;;;;;1.24;96.91;101645.47;4230778;28;20232;-74
2024/01/28 00:18:22;;;;;;;6.17;1.53;;;;;;;0.91;98.11;101643.09;4215897;28;20430;-70
2024/01/28 00:20:49;;;;;;;0.17;0.17;;;;;;;0.82;98.57;101656.75;4210042;28;20358;-73
2024/01/28 00:23:15;;;;;;;2.93;0.93;;;;;;;0.74;99.25;101651.72;4212377;28;20228;-75
2024/01/28 00:25:42;;;;;;;0.10;0.10;;;;;;;0.57;100.00;101664.75;4206335;28;20232;-74
2024/01/28 00:28:08;;;;;;;0.00;0.00;;;;;;;0.54;100.00;101671.06;4205850;28;20613;-74
2024/01/28 00:30:35;;;;;;;1.47;0.60;;;;;;;0.49;100.00;101669.47;4208761;28;20326;-76
2024/01/28 00:33:02;;;;;;;0.10;0.10;;;;;;;0.28;100.00;101680.78;4204544;28;20234;-74
2024/01/28 00:35:29;;;;;;;0.10;0.10;;;;;;;0.38;100.00;101684.00;4207930;28;20244;-74
2024/01/28 00:37:57;;;;;;;0.10;0.10;;;;;;;0.28;100.00;101683.44;4206590;28;20240;-73
2024/01/28 00:40:24;;;;;;;0.10;0.10;;;;;;;0.17;100.00;101680.25;4204046;28;26358;-76
2024/01/28 00:42:51;;;;;;;0.10;0.10;;;;;;;0.08;100.00;101691.22;4204199;28;25304;-74
2024/01/28 00:45:17;;;;;;;0.10;0.10;;;;;;;0.02;100.00;101704.72;4203856;28;20392;-75
2024/01/28 00:47:44;;;;;;;0.10;0.10;;;;;;;-0.13;100.00;101704.28;4205550;28;20259;-74
2024/01/28 00:50:11;;;;;;;6.13;2.47;;;;;;;-0.26;100.00;101702.88;4204139;28;20242;-73
2024/01/28 00:52:38;;;;;;;2.23;1.17;;;;;;;-0.31;100.00;101708.38;4207875;28;20282;-74
2024/01/28 00:55:04;;;;;;;2.37;1.13;;;;;;;-0.39;100.00;101707.72;4205225;28;22759;-74
2024/01/28 00:57:31;;;;;;;15.63;0.80;;;;;;;-0.40;100.00;101708.63;4212095;28;23622;-49
2024/01/28 00:59:58;;;;;;;0.10;0.10;;;;;;;-0.41;100.00;101712.22;4201933;28;20368;-72
2024/01/28 01:02:24;;;;;;;0.10;0.10;;;;;;;-0.43;100.00;101709.59;4207099;28;20401;-71
2024/01/28 01:04:51;;;;;;;0.10;0.10;;;;;;;-0.42;100.00;101706.03;4204428;28;20235;-72
2024/01/28 01:07:17;;;;;;;0.73;0.73;;;;;;;-0.39;100.00;101715.72;4221916;28;20275;-70
2024/01/28 01:09:44;;;;;;;0.37;0.37;;;;;;;-0.51;100.00;101712.47;4204950;28;20844;-70
2024/01/28 01:12:12;;;;;;;0.10;0.10;;;;;;;-0.60;100.00;101712.72;4209208;28;23628;-71
2024/01/28 01:14:38;;;;;;;0.30;0.30;;;;;;;-0.69;100.00;101713.03;4206196;28;20615;-73
2024/01/28 01:17:05;;;;;;;0.10;0.10;;;;;;;-0.71;100.00;101706.88;4193267;28;21091;-69
2024/01/28 01:19:32;;;;;;;2.70;0.93;;;;;;;-0.70;100.00;101722.75;4204457;28;20888;-71
2024/01/28 01:22:01;;;;;;;0.10;0.10;;;;;;;-0.68;100.00;101712.09;4207080;28;22985;-68
2024/01/28 01:24:28;;;;;;;0.10;0.10;;;;;;;-0.73;100.00;101717.56;4205237;28;25919;-69
2024/01/28 01:26:54;;;;;;;0.10;0.10;;;;;;;-0.81;100.00;101712.44;4197057;28;20759;-70
2024/01/28 01:29:21;;;;;;;0.30;0.30;;;;;;;-0.86;100.00;101706.38;4202802;28;20753;-71
2024/01/28 01:31:48;;;;;;;0.10;0.10;;;;;;;-0.88;100.00;101713.53;4211754;28;20234;-72
2024/01/28 01:34:14;;;;;;;0.10;0.10;;;;;;;-0.93;100.00;101717.22;4206187;28;23841;-72
2024/01/28 01:36:44;;;;;;;0.20;0.20;;;;;;;-0.83;100.00;101719.56;4204667;28;20314;-70
2024/01/28 01:39:12;;;;;;;0.10;0.10;;;;;;;-0.86;100.00;101709.03;4211318;28;20327;-70
2024/01/28 01:41:39;;;;;;;0.10;0.10;;;;;;;-0.89;100.00;101713.56;4207828;28;20242;-71
2024/01/28 01:44:05;;;;;;;0.10;0.10;;;;;;;-0.97;100.00;101711.09;4205669;28;21022;-70
2024/01/28 01:46:32;;;;;;;0.10;0.10;;;;;;;-1.01;100.00;101717.44;4197264;28;20646;-71
2024/01/28 01:48:59;;;;;;;0.40;0.40;;;;;;;-0.84;100.00;101725.84;4206876;28;20289;-71
2024/01/28 01:51:26;;;;;;;0.10;0.10;;;;;;;-0.83;100.00;101734.66;4212425;28;21005;-72
2024/01/28 01:53:54;;;;;;;0.10;0.10;;;;;;;-0.99;100.00;101734.22;4206222;28;20326;-72
2024/01/28 01:56:22;;;;;;;0.20;0.20;;;;;;;-1.03;100.00;101727.22;4210685;28;20418;-71
2024/01/28 01:58:49;;;;;;;5.67;0.40;;;;;;;-1.10;100.00;101722.97;4204830;28;20239;-72
2024/01/28 02:01:16;;;;;;;0.93;0.93;;;;;;;-1.06;100.00;101722.88;4205073;28;20279;-71
2024/01/28 02:03:43;;;;;;;1.03;1.03;;;;;;;-1.04;100.00;101722.81;4206213;28;20398;-70
2024/01/28 02:06:13;;;;;;;0.10;0.10;;;;;;;-1.03;100.00;101725.47;4204214;28;20267;-73
2024/01/28 02:08:40;;;;;;;0.10;0.10;;;;;;;-1.01;100.00;101722.75;4206444;28;20232;-73
2024/01/28 02:11:07;;;;;;;0.67;0.67;;;;;;;-0.83;100.00;101726.69;4208788;28;20968;-69
2024/01/28 02:13:34;;;;;;;0.10;0.10;;;;;;;-0.76;100.00;101725.59;4209133;28;20243;-69
2024/01/28 02:16:00;;;;;;;0.10;0.10;;;;;;;-0.76;100.00;101719.44;4198973;28;22866;-70
2024/01/28 02:18:27;;;;;;;0.10;0.10;;;;;;;-0.72;100.00;101729.94;4209678;28;20228;-72
2024/01/28 02:20:54;;;;;;;0.10;0.10;;;;;;;-0.82;100.00;101723.97;4209113;28;20354;-71
2024/01/28 02:23:21;;;;;;;0.10;0.10;;;;;;;-0.76;100.00;101725.59;4211441;28;20287;-72
2024/01/28 02:25:50;;;;;;;6.07;0.63;;;;;;;-0.81;100.00;101723.06;4209250;28;20243;-72
2024/01/28 02:28:17;;;;;;;0.40;0.40;;;;;;;-0.65;100.00;101725.31;4210171;28;21230;-69
2024/01/28 02:30:43;;;;;;;0.10;0.10;;;;;;;-0.56;100.00;101730.38;4210508;28;20235;-72
2024/01/28 02:33:10;;;;;;;0.30;0.30;;;;;;;-0.57;100.00;101725.97;4210288;28;20236;-72
2024/01/28 02:35:37;;;;;;;3.03;0.60;;;;;;;-0.53;100.00;101724.94;4208237;28;20232;-69
2024/01/28 02:38:04;;;;;;;0.50;0.50;;;;;;;-0.36;100.00;101735.13;4207884;28;20252;-70
2024/01/28 02:40:31;;;;;;;0.10;0.10;;;;;;;-0.39;100.00;101732.53;4214047;28;21727;-71
2024/01/28 02:42:59;;;;;;;0.10;0.10;;;;;;;-0.30;100.00;101738.50;4211186;28;20238;-71
2024/01/28 02:45:26;;;;;;;1.50;1.30;;;;;;;-0.21;100.00;101748.88;4226325;28;20235;-70
2024/01/28 02:47:53;;;;;;;5.87;0.70;;;;;;;-0.18;100.00;101751.44;4207732;28;20243;-70
2024/01/28 02:50:19;;;;;;;0.10;0.10;;;;;;;-0.21;100.00;101755.06;4208268;28;20237;-71
2024/01/28 02:52:46;;;;;;;0.20;0.20;;;;;;;-0.15;100.00;101763.81;4207143;28;20675;-71
2024/01/28 02:55:13;;;;;;;0.40;0.40;;;;;;;-0.13;100.00;101770.81;4210484;28;20266;-71
2024/01/28 02:57:39;;;;;;;0.00;0.00;;;;;;;-0.01;100.00;101767.78;4207379;28;20324;-70
2024/01/28 03:00:07;;;;;;;0.10;0.10;;;;;;;0.09;100.00;101768.38;4208532;28;22044;-70
2024/01/28 03:02:33;;;;;;;1.20;0.47;;;;;;;0.02;100.00;101768.63;4211244;28;23436;-69
2024/01/28 03:05:00;;;;;;;0.10;0.10;;;;;;;0.04;100.00;101780.94;4209997;28;20237;-69
2024/01/28 03:07:27;;;;;;;0.43;0.43;;;;;;;0.10;100.00;101795.88;4200464;28;20314;-71
2024/01/28 03:09:53;;;;;;;0.30;0.30;;;;;;;-0.08;100.00;101789.31;4208992;28;22291;-70
2024/01/28 03:12:20;;;;;;;5.33;1.17;;;;;;;-0.02;100.00;101797.97;4206497;28;20311;-71
2024/01/28 03:14:47;;;;;;;0.13;0.13;;;;;;;-0.04;100.00;101805.13;4208025;28;21238;-72
2024/01/28 03:17:13;;;;;;;0.20;0.20;;;;;;;-0.02;100.00;101811.28;4194543;28;22328;-71
2024/01/28 03:19:40;;;;;;;0.10;0.10;;;;;;;-0.01;100.00;101817.50;4206954;28;20284;-72
2024/01/28 03:22:06;;;;;;;0.10;0.10;;;;;;;-0.01;100.00;101815.69;4207120;28;20236;-71
2024/01/28 03:24:33;;;;;;;0.10;0.10;;;;;;;-0.01;100.00;101806.84;4210543;28;21245;-69
2024/01/28 03:27:00;;;;;;;0.20;0.20;;;;;;;0.02;100.00;101805.88;4188231;28;20251;-69
2024/01/28 03:29:27;;;;;;;0.20;0.20;;;;;;;-0.02;100.00;101803.31;4227792;28;20240;-69
2024/01/28 03:31:53;;;;;;;7.93;4.30;;;;;;;0.03;100.00;101797.84;4207204;28;25038;-70
2024/01/28 03:34:20;;;;;;;6.03;0.70;;;;;;;0.09;100.00;101796.78;4211187;28;20228;-70
2024/01/28 03:36:47;;;;;;;0.17;0.17;;;;;;;0.05;100.00;101801.34;4198473;28;20414;-69
2024/01/28 03:39:16;;;;;;;0.10;0.10;;;;;;;0.08;100.00;101811.03;4204463;28;20259;-71
2024/01/28 03:41:43;;;;;;;0.20;0.20;;;;;;;0.11;100.00;101810.94;4208187;28;20233;-71
2024/01/28 03:44:10;;;;;;;0.27;0.27;;;;;;;0.12;100.00;101815.31;4209192;28;20346;-71
2024/01/28 03:46:38;;;;;;;0.10;0.10;;;;;;;0.17;100.00;101809.84;4207759;28;20240;-73
2024/01/28 03:49:05;;;;;;;0.20;0.20;;;;;;;0.13;100.00;101811.75;4208019;28;20396;-70
2024/01/28 03:51:32;;;;;;;0.43;0.43;;;;;;;0.17;100.00;101820.50;4210835;28;20455;-71
2024/01/28 03:53:58;;;;;;;0.10;0.10;;;;;;;0.19;100.00;101816.88;4206105;28;20272;-71
2024/01/28 03:56:25;;;;;;;0.10;0.10;;;;;;;0.27;100.00;101803.34;4196107;28;22389;-70
2024/01/28 03:58:52;;;;;;;1.57;1.23;;;;;;;0.26;100.00;101818.47;4204457;28;21480;-71
2024/01/28 04:01:29;;;;;;;1.23;1.23;;;;;;;0.26;100.00;101812.25;4208317;28;21147;-70
2024/01/28 04:03:57;;;;;;;12.80;0.43;;;;;;;0.30;100.00;101821.91;4208137;28;20240;-72
2024/01/28 04:06:24;;;;;;;3.87;3.50;;;;;;;0.34;100.00;101826.22;4210260;28;21047;-69
2024/01/28 04:08:55;;;;;;;0.20;0.20;;;;;;;0.35;100.00;101821.75;4209089;28;20337;-70
2024/01/28 04:11:25;;;;;;;3.47;0.80;;;;;;;0.36;100.00;101815.50;4205108;28;23422;-69
2024/01/28 04:13:54;;;;;;;0.20;0.20;;;;;;;0.38;100.00;101825.19;4209241;28;22243;-69
2024/01/28 04:16:21;;;;;;;0.50;0.50;;;;;;;0.40;100.00;101823.34;4207366;28;22406;-72
2024/01/28 04:18:48;;;;;;;0.10;0.10;;;;;;;0.41;100.00;101832.22;4207482;28;20268;-71
2024/01/28 04:21:14;;;;;;;9.13;1.73;;;;;;;0.42;100.00;101836.63;4207653;28;21841;-71
2024/01/28 04:23:41;;;;;;;0.00;0.00;;;;;;;0.39;100.00;101842.06;4213331;28;20237;-70
2024/01/28 04:26:09;;;;;;;0.20;0.20;;;;;;;0.40;100.00;101847.31;4211017;28;20375;-70
2024/01/28 04:28:36;;;;;;;1.27;0.77;;;;;;;0.41;100.00;101849.06;4196020;28;20609;-70
2024/01/28 04:31:02;;;;;;;10.50;1.80;;;;;;;0.45;100.00;101858.72;4209316;28;21176;-71
2024/01/28 04:33:29;;;;;;;1.43;1.13;;;;;;;0.50;100.00;101861.22;4214782;28;20266;-70
2024/01/28 04:35:56;;;;;;;0.10;0.10;;;;;;;0.55;100.00;101869.97;4208659;28;22331;-70
2024/01/28 04:38:22;;;;;;;1.00;0.87;;;;;;;0.61;100.00;101868.88;4207731;28;24900;-71
2024/01/28 04:40:49;;;;;;;3.03;0.40;;;;;;;0.56;100.00;101860.19;4205714;28;20600;-70
2024/01/28 04:43:20;;;;;;;0.83;0.30;;;;;;;0.55;100.00;101875.31;4204996;28;21218;-70
2024/01/28 04:45:46;;;;;;;0.17;0.10;;;;;;;0.61;100.00;101866.22;4206623;28;20291;-70
2024/01/28 04:48:13;;;;;;;2.50;2.40;;;;;;;0.62;100.00;101875.97;4205644;28;20227;-70
2024/01/28 04:50:40;;;;;;;3.53;1.33;;;;;;;0.62;100.00;101868.88;4193670;28;20236;-71
2024/01/28 04:53:07;;;;;;;0.13;0.13;;;;;;;0.61;100.00;101879.56;4209343;28;20601;-70
2024/01/28 04:55:34;;;;;;;1.40;1.03;;;;;;;0.73;100.00;101881.84;4206530;28;20361;-70
2024/01/28 04:58:01;;;;;;;0.63;0.63;;;;;;;0.65;100.00;101888.31;4205626;28;20275;-71
2024/01/28 05:00:27;;;;;;;0.70;0.70;;;;;;;0.66;100.00;101898.97;4211723;28;20306;-70
2024/01/28 05:02:56;;;;;;;0.63;0.63;;;;;;;0.78;100.00;101897.72;4207657;28;20229;-70
2024/01/28 05:05:23;;;;;;;0.60;0.60;;;;;;;0.75;100.00;101904.00;4210151;28;20568;-71
2024/01/28 05:07:50;;;;;;;0.20;0.20;;;;;;;0.82;100.00;101910.00;4209674;28;21953;-70
2024/01/28 05:10:16;;;;;;;0.10;0.10;;;;;;;0.86;100.00;101913.44;4208670;28;20236;-71
2024/01/28 05:12:45;;;;;;;1.07;0.60;;;;;;;0.74;100.00;101915.59;4206221;28;20420;-70
2024/01/28 05:15:16;;;;;;;2.07;1.10;;;;;;;0.79;100.00;101916.31;4209322;28;25603;-71
2024/01/28 05:17:44;;;;;;;0.10;0.10;;;;;;;0.79;100.00;101918.13;4206892;28;20229;-69
2024/01/28 05:20:12;;;;;;;1.30;1.20;;;;;;;0.84;100.00;101925.94;4206546;28;20232;-70
2024/01/28 05:22:38;;;;;;;2.53;1.27;;;;;;;0.77;100.00;101920.81;4202640;28;20665;-70
2024/01/28 05:25:05;;;;;;;6.20;0.93;;;;;;;0.76;100.00;101929.72;4203697;28;20358;-68
2024/01/28 05:27:34;;;;;;;0.47;0.30;;;;;;;0.83;100.00;101925.09;4207706;28;20237;-71
2024/01/28 05:30:00;;;;;;;0.10;0.10;;;;;;;0.87;100.00;101920.53;4206170;28;26481;-72
2024/01/28 05:32:27;;;;;;;0.10;0.10;;;;;;;0.86;100.00;101918.78;4203654;28;20286;-69
2024/01/28 05:34:56;;;;;;;0.20;0.20;;;;;;;1.02;100.00;101921.84;4211590;28;20236;-70
2024/01/28 05:37:23;;;;;;;0.83;0.50;;;;;;;0.88;100.00;101924.94;4210258;28;20415;-70
2024/01/28 05:39:50;;;;;;;0.10;0.10;;;;;;;0.86;100.00;101926.78;4205566;28;20355;-71
2024/01/28 05:42:17;;;;;;;0.10;0.10;;;;;;;0.89;100.00;101926.69;4229603;28;20304;-69
2024/01/28 05:44:43;;;;;;;0.10;0.10;;;;;;;0.87;100.00;101936.53;4208806;28;20220;-71
2024/01/28 05:47:10;;;;;;;0.10;0.10;;;;;;;0.90;100.00;101936.44;4209267;28;20235;-71
2024/01/28 05:49:37;;;;;;;0.00;0.00;;;;;;;0.89;100.00;101929.34;4206437;28;20236;-70
2024/01/28 05:52:05;;;;;;;0.10;0.10;;;;;;;0.86;100.00;101929.44;4205251;28;20283;-70
2024/01/28 05:54:32;;;;;;;0.10;0.10;;;;;;;0.93;100.00;101942.53;4213260;28;20232;-70
2024/01/28 05:57:00;;;;;;;0.30;0.30;;;;;;;0.91;100.00;101938.16;4207440;28;20287;-69
2024/01/28 05:59:26;;;;;;;0.50;0.50;;;;;;;0.90;100.00;101939.97;4206562;28;20764;-69
2024/01/28 06:01:53;;;;;;;0.17;0.17;;;;;;;0.94;100.00;101954.06;4200405;28;20246;-70
2024/01/28 06:04:20;;;;;;;0.57;0.57;;;;;;;0.98;100.00;101946.84;4209824;28;20319;-70
2024/01/28 06:06:47;;;;;;;0.20;0.20;;;;;;;0.92;100.00;101956.78;4212414;28;20238;-70
2024/01/28 06:09:13;;;;;;;0.30;0.30;;;;;;;0.94;100.00;101957.59;4209836;28;25719;-70
2024/01/28 06:11:43;;;;;;;0.20;0.20;;;;;;;0.92;100.00;101956.78;4208897;28;20372;-71
2024/01/28 06:14:11;;;;;;;0.20;0.20;;;;;;;0.98;100.00;101957.50;4213034;28;20247;-70
2024/01/28 06:16:37;;;;;;;0.10;0.10;;;;;;;1.04;100.00;101968.00;4206183;28;20407;-70
2024/01/28 06:19:04;;;;;;;0.10;0.10;;;;;;;0.95;100.00;101966.50;4207202;28;21108;-71
2024/01/28 06:21:31;;;;;;;0.10;0.10;;;;;;;1.01;100.00;101966.28;4204653;28;22144;-71
2024/01/28 06:23:58;;;;;;;0.10;0.10;;;;;;;1.04;100.00;101970.66;4204754;28;20244;-70
2024/01/28 06:26:24;;;;;;;0.20;0.20;;;;;;;1.03;100.00;101969.78;4220205;28;20242;-71
2024/01/28 06:28:51;;;;;;;0.10;0.10;;;;;;;1.04;100.00;101974.22;4207467;28;20351;-70
2024/01/28 06:31:19;;;;;;;0.30;0.30;;;;;;;1.04;100.00;101966.22;4199917;28;20244;-71
2024/01/28 06:33:46;;;;;;;2.03;0.40;;;;;;;1.04;100.00;101982.22;4204490;28;22114;-73
2024/01/28 06:36:20;;;;;;;0.10;0.10;;;;;;;1.04;100.00;101973.31;4207515;28;20255;-73
2024/01/28 06:38:47;;;;;;;0.20;0.20;;;;;;;1.09;100.00;101974.06;4208248;28;21135;-71
2024/01/28 06:41:15;;;;;;;0.07;0.07;;;;;;;1.08;100.00;101980.31;4207240;28;20240;-70
2024/01/28 06:43:42;;;;;;;1.87;1.20;;;;;;;1.02;100.00;101981.38;4204766;28;21255;-70
2024/01/28 06:46:11;;;;;;;0.10;0.10;;;;;;;1.19;100.00;101982.66;4210774;28;20244;-71
2024/01/28 06:48:38;;;;;;;2.57;0.80;;;;;;;1.24;100.00;101988.69;4210238;28;20406;-70
2024/01/28 06:51:05;;;;;;;0.00;0.00;;;;;;;1.25;100.00;101974.44;4194665;28;20264;-70
2024/01/28 06:53:32;;;;;;;4.70;0.63;;;;;;;1.20;100.00;101984.41;4208427;28;20248;-69
2024/01/28 06:55:58;;;;;;;0.93;0.67;;;;;;;1.20;100.00;101987.94;4220406;28;22348;-70
2024/01/28 06:58:24;;;;;;;4.13;0.37;;;;;;;1.30;100.00;101979.63;4211026;28;20330;-70
2024/01/28 07:00:51;;;;;;;0.10;0.10;;;;;;;1.36;100.00;101987.44;4207977;28;20500;-73
2024/01/28 07:03:18;;;;;;;0.10;0.10;;;;;;;1.56;100.00;101990.31;4203491;28;21825;-70
2024/01/28 07:05:46;;;;;;;0.87;0.43;;;;;;;1.43;100.00;101997.84;4210761;28;20241;-70
2024/01/28 07:08:13;;;;;;;1.20;0.73;;;;;;;1.46;100.00;101999.56;4205179;28;20238;-72
2024/01/28 07:10:40;;;;;;;0.80;0.80;;;;;;;1.56;100.00;101998.31;4205586;28;20644;-71
2024/01/28 07:13:08;;;;;;;0.10;0.10;;;;;;;1.70;100.00;102008.56;4205200;28;20267;-74
2024/01/28 07:15:36;;;;;;;0.30;0.30;;;;;;;1.76;100.00;101995.91;4211252;28;20471;-73
2024/01/28 07:18:03;;;;;;;0.10;0.10;;;;;;;1.76;100.00;102006.59;4214049;28;20624;-71
2024/01/28 07:20:31;;;;;;;0.20;0.20;;;;;;;1.85;100.00;102006.28;4207626;28;20239;-70
2024/01/28 07:22:57;;;;;;;1.70;0.97;;;;;;;1.71;100.00;102010.31;4213692;28;21180;-71
2024/01/28 07:25:24;;;;;;;1.60;1.50;;;;;;;1.74;100.00;102023.53;4219179;28;20649;-71
2024/01/28 07:27:52;;;;;;;3.80;2.43;;;;;;;2.05;100.00;102017.16;4202319;28;20302;-71
2024/01/28 07:30:19;;;;;;;0.00;0.00;;;;;;;2.16;100.00;102011.44;4211451;28;23107;-72
2024/01/28 07:32:45;;;;;;;0.00;0.00;;;;;;;2.15;100.00;102009.69;4211054;28;23675;-72
2024/01/28 07:35:12;;;;;;;0.00;0.00;;;;;;;2.24;100.00;102004.94;4212298;28;22800;-72
2024/01/28 07:37:39;;;;;;;0.57;0.57;;;;;;;2.14;100.00;102002.63;4205930;28;20289;-70
2024/01/28 07:40:06;;;;;;;1.17;1.03;;;;;;;2.10;100.00;101995.63;4209950;28;20647;-69
2024/01/28 07:42:33;;;;;;;0.00;0.00;;;;;;;2.21;100.00;102006.81;4217374;28;20229;-71
2024/01/28 07:45:00;;;;;;;0.00;0.00;;;;;;;2.24;100.00;102002.25;4231179;28;20228;-70
2024/01/28 07:47:27;;;;;;;0.20;0.20;;;;;;;2.27;100.00;102011.03;4212722;28;20235;-71
2024/01/28 07:49:53;;;;;;;0.00;0.00;;;;;;;2.43;100.00;102003.38;4206727;28;20287;-70
2024/01/28 07:52:20;;;;;;;0.10;0.10;;;;;;;2.56;100.00;102014.47;4218785;28;20243;-69
2024/01/28 07:54:46;;;;;;;0.27;0.23;;;;;;;2.51;100.00;102013.75;4209949;28;20240;-70
2024/01/28 07:57:13;;;;;;;0.10;0.10;;;;;;;2.36;100.00;102012.53;4218080;28;20251;-70
2024/01/28 07:59:40;;;;;;;0.00;0.00;;;;;;;2.60;100.00;102013.44;4209026;28;20819;-73
2024/01/28 08:02:07;;;;;;;0.00;0.00;;;;;;;2.83;100.00;102022.38;4205884;28;21782;-69
2024/01/28 08:04:33;;;;;;;0.10;0.10;;;;;;;2.95;100.00;102013.88;4198763;28;20349;-70
2024/01/28 08:07:00;;;;;;;0.30;0.30;;;;;;;2.96;100.00;102014.78;4199560;28;20232;-68
2024/01/28 08:09:31;;;;;;;0.00;0.00;;;;;;;3.23;100.00;102019.97;4217248;28;20232;-67
2024/01/28 08:11:58;;;;;;;0.10;0.10;;;;;;;3.25;100.00;102021.66;4239522;28;25498;-68
2024/01/28 08:14:27;;;;;;;0.70;0.60;;;;;;;3.52;100.00;102024.16;4208893;28;20238;-69
2024/01/28 08:16:55;;;;;;;0.10;0.10;;;;;;;3.45;100.00;102026.22;4223800;28;25396;-68
2024/01/28 08:19:21;;;;;;;1.30;0.47;;;;;;;3.22;100.00;102023.56;4231816;28;20240;-71
2024/01/28 08:21:48;;;;;;;2.37;0.70;;;;;;;3.04;100.00;102028.72;4206654;28;20499;-69
2024/01/28 08:24:15;;;;;;;0.00;0.00;;;;;;;3.52;100.00;102032.19;4204330;28;20350;-69
2024/01/28 08:26:42;;;;;;;3.50;1.60;;;;;;;3.38;100.00;102032.75;4209877;28;20593;-73
2024/01/28 08:29:09;;;;;;;0.10;0.10;;;;;;;3.21;100.00;102040.59;4209547;28;20245;-72
2024/01/28 08:31:36;;;;;;;1.10;0.57;;;;;;;3.44;100.00;102039.66;4201428;28;21092;-70
2024/01/28 08:34:02;;;;;;;0.43;0.43;;;;;;;3.47;100.00;102035.06;4207204;28;22842;-70
2024/01/28 08:36:29;;;;;;;0.00;0.00;;;;;;;3.67;100.00;102053.94;4207003;28;25712;-72
2024/01/28 08:38:56;;;;;;;0.00;0.00;;;;;;;3.59;100.00;102044.41;4205023;28;21990;-72
2024/01/28 08:41:22;;;;;;;0.10;0.10;;;;;;;3.96;100.00;102050.06;4216912;28;21075;-73
2024/01/28 08:43:49;;;;;;;0.20;0.20;;;;;;;3.96;100.00;102050.06;4214272;28;20978;-73
2024/01/28 08:46:16;;;;;;;0.10;0.10;;;;;;;4.37;100.00;102047.38;4214096;28;20232;-72
2024/01/28 08:48:43;;;;;;;1.37;1.27;;;;;;;3.90;100.00;102048.50;4224161;28;20312;-72
2024/01/28 08:51:09;;;;;;;2.70;1.13;;;;;;;5.02;100.00;102052.50;4241849;28;20234;-72
2024/01/28 08:53:37;;;;;;;0.97;0.57;;;;;;;7.64;84.04;102057.88;4232187;28;20349;-73
2024/01/28 08:56:04;;;;;;;0.00;0.00;;;;;;;11.21;72.41;102063.72;4219215;28;20278;-72
2024/01/28 08:58:35;;;;;;;0.87;0.50;;;;;;;10.14;68.38;102060.34;4188231;28;20284;-73
2024/01/28 09:01:03;;;;;;;0.43;0.43;;;;;;;9.09;71.47;102066.31;4218618;28;21642;-71
2024/01/28 09:03:30;;;;;;;0.00;0.00;;;;;;;8.35;74.33;102058.22;4220226;28;20597;-75
2024/01/28 09:05:56;;;;;;;0.00;0.00;;;;;;;7.28;81.24;102059.00;4212521;28;21311;-75
2024/01/28 09:08:23;;;;;;;0.67;0.43;;;;;;;6.63;82.46;102059.84;4227695;28;26436;-76
2024/01/28 09:10:51;;;;;;;0.10;0.10;;;;;;;6.08;85.74;102072.53;4207248;28;20596;-72
2024/01/28 09:13:18;;;;;;;0.10;0.10;;;;;;;5.10;91.27;102075.47;4216483;28;22483;-71
2024/01/28 09:15:44;;;;;;;0.00;0.00;;;;;;;5.08;92.76;102073.72;4220065;28;20232;-72
2024/01/28 09:18:11;;;;;;;0.00;0.00;;;;;;;5.13;93.32;102075.28;4216297;28;20627;-71
2024/01/28 09:20:38;;;;;;;0.10;0.10;;;;;;;4.85;94.11;102076.56;4189486;28;21583;-73
2024/01/28 09:23:05;;;;;;;0.70;0.70;;;;;;;4.75;95.44;102060.03;4210305;28;20296;-72
2024/01/28 09:25:33;;;;;;;0.10;0.10;;;;;;;4.81;95.57;102066.91;4213457;28;20632;-72
2024/01/28 09:28:00;;;;;;;0.27;0.27;;;;;;;4.72;97.93;102066.38;4228413;28;20238;-73
2024/01/28 09:30:27;;;;;;;0.10;0.10;;;;;;;5.23;95.15;102066.72;4210800;28;22964;-74
2024/01/28 09:32:53;;;;;;;0.10;0.10;;;;;;;4.72;96.58;102061.00;4216674;28;20631;-72
2024/01/28 09:35:20;;;;;;;0.00;0.00;;;;;;;5.30;95.22;102067.31;4215210;28;25992;-72
2024/01/28 09:37:48;;;;;;;0.00;0.00;;;;;;;5.46;92.62;102072.81;4208736;28;21570;-70
2024/01/28 09:40:14;;;;;;;0.00;0.00;;;;;;;5.19;93.97;102070.53;4207955;28;20314;-71
2024/01/28 09:42:44;;;;;;;0.00;0.00;;;;;;;4.89;95.63;102072.78;4211528;28;20231;-70
2024/01/28 09:45:11;;;;;;;0.00;0.00;;;;;;;5.13;94.62;102077.97;4210017;28;20233;-72
2024/01/28 09:47:39;;;;;;;0.00;0.00;;;;;;;5.04;95.31;102068.56;4213191;28;20382;-73
2024/01/28 09:50:08;;;;;;;0.10;0.10;;;;;;;4.58;97.77;102066.13;4207996;28;20240;-70
2024/01/28 09:52:36;;;;;;;0.10;0.10;;;;;;;4.85;96.41;102068.53;4206671;28;20747;-72
2024/01/28 09:55:04;;;;;;;0.00;0.00;;;;;;;4.94;95.76;102076.16;4215981;28;22294;-72
2024/01/28 09:57:31;;;;;;;0.00;0.00;;;;;;;4.96;96.25;102074.25;4212597;28;20304;-73
2024/01/28 09:59:58;;;;;;;0.10;0.10;;;;;;;4.94;96.45;102075.28;4212250;28;21752;-71
2024/01/28 10:02:25;;;;;;;0.10;0.10;;;;;;;4.81;96.94;102083.91;4226695;28;21654;-70
2024/01/28 10:04:52;;;;;;;1.60;0.30;;;;;;;4.33;98.52;102088.69;4219559;28;20536;-76
2024/01/28 10:07:18;;;;;;;1.67;0.73;;;;;;;4.21;99.93;102089.19;4207119;28;20243;-71
2024/01/28 10:09:45;;;;;;;1.40;0.40;;;;;;;3.94;100.00;102082.25;4200385;28;20240;-70
2024/01/28 10:12:12;;;;;;;0.00;0.00;;;;;;;4.18;100.00;102089.34;4215094;28;21720;-71
2024/01/28 10:14:38;;;;;;;0.40;0.10;;;;;;;4.21;99.76;102087.41;4215271;28;20235;-72
2024/01/28 10:17:05;;;;;;;0.10;0.10;;;;;;;4.43;99.08;102081.09;4205690;28;20323;-72
2024/01/28 10:19:32;;;;;;;0.00;0.00;;;;;;;4.44;99.47;102081.03;4213395;28;22799;-70
2024/01/28 10:22:03;;;;;;;0.00;0.00;;;;;;;4.48;99.47;102079.09;4212991;28;20236;-71
2024/01/28 10:24:30;;;;;;;0.20;0.20;;;;;;;4.40;99.67;102086.59;4206057;28;20326;-69
2024/01/28 10:26:57;;;;;;;0.67;0.57;;;;;;;3.99;100.00;102089.25;4211939;28;21091;-68
2024/01/28 10:29:25;;;;;;;15.43;0.77;;;;;;;4.02;100.00;102081.06;4216411;28;20237;-74
2024/01/28 10:31:52;;;;;;;0.00;0.00;;;;;;;4.00;100.00;102093.66;4210037;28;20290;-69
2024/01/28 10:34:18;;;;;;;0.07;0.07;;;;;;;4.04;100.00;102088.09;4210241;28;21400;-70
2024/01/28 10:36:47;;;;;;;0.00;0.00;;;;;;;3.86;100.00;102086.19;4233606;28;25720;-69
2024/01/28 10:39:14;;;;;;;3.33;0.70;;;;;;;3.59;100.00;102092.59;4203840;28;20233;-73
2024/01/28 10:41:43;;;;;;;0.60;0.60;;;;;;;3.61;100.00;102095.22;4209867;28;20238;-69
2024/01/28 10:44:12;;;;;;;0.30;0.30;;;;;;;3.51;100.00;102092.03;4213264;28;25122;-71
2024/01/28 10:46:41;;;;;;;2.83;2.63;;;;;;;3.60;100.00;102101.50;4210327;28;20241;-73
2024/01/28 10:49:09;;;;;;;0.10;0.10;;;;;;;3.63;100.00;102096.03;4210809;28;20279;-69
2024/01/28 10:51:38;;;;;;;0.10;0.10;;;;;;;3.63;100.00;102098.72;4210464;28;20242;-69
2024/01/28 10:54:07;;;;;;;0.10;0.10;;;;;;;3.75;100.00;102100.88;4207723;28;21308;-69
2024/01/28 10:56:37;;;;;;;1.43;0.67;;;;;;;3.56;100.00;102103.41;4206847;28;20233;-71
2024/01/28 10:59:03;;;;;;;0.30;0.30;;;;;;;3.49;100.00;102104.59;4216856;28;20232;-69
2024/01/28 11:01:32;;;;;;;1.00;0.93;;;;;;;3.48;100.00;102109.09;4213123;28;20237;-75
2024/01/28 11:03:59;;;;;;;0.10;0.10;;;;;;;3.74;100.00;102106.31;4213874;28;20237;-72
2024/01/28 11:06:29;;;;;;;0.67;0.30;;;;;;;3.68;100.00;102104.75;4213244;28;21807;-73
2024/01/28 11:08:56;;;;;;;1.50;0.37;;;;;;;3.55;100.00;102103.50;4212881;28;20245;-73
2024/01/28 11:11:22;;;;;;;0.37;0.37;;;;;;;3.58;100.00;102104.25;4225171;28;22404;-75
2024/01/28 11:13:49;;;;;;;0.10;0.10;;;;;;;3.58;100.00;102106.91;4223927;28;20330;-75
2024/01/28 11:16:19;;;;;;;5.53;2.10;;;;;;;3.60;100.00;102110.41;4203027;28;20236;-73
2024/01/28 11:19:04;;;;;;;0.10;0.10;;;;;;;3.65;100.00;102116.44;4209159;28;20237;-74
2024/01/28 11:21:33;;;;;;;0.50;0.30;;;;;;;3.62;100.00;102110.34;4211196;28;20232;-72
2024/01/28 11:24:06;;;;;;;1.70;0.53;;;;;;;3.67;100.00;102113.69;4221222;28;23694;-72